Terminal Aerodrome Forecast
Issued by NWS North Platte, NE

Home | Current Version | Previous Version | Text Only | Print | Product List | Glossary On
Versions: 1 2 3 4 5 6 7 8 9 10 11 12 13 14 15 16 17 18 19 20 21 22 23 24 25 26 27 28
000
FTUS43 KLBF 270520
TAFLBF
TAF
KLBF 270520Z 2706/2806 02005KT P6SM FEW250
     FM271200 VRB03KT P6SM OVC100
     FM271600 11008KT P6SM OVC070
     FM271800 10012G18KT P6SM OVC050
     FM272200 11011KT P6SM OVC025
     FM272300 10011KT P6SM -RA OVC015
     FM280200 09010KT 4SM -RA BR OVC015=

USA.gov is the U.S. government's official web portal to all federal, state and local government web resources and services.